Time;durP1;ratioP1;P1;durP2;ratioP2;P2;SDS_P1;SDS_P2;PMS_P1;PMS_P2;Temp;Humidity;BMP_temperature;BMP_pressure;BME280_temperature;BME280_humidity;BME280_pressure;Samples;Min_cycle;Max_cycle;Signal;HPM_P1;HPM_P2
2023/10/23 00:00:32;;;;;;;1.83;1.30;;;7.60;99.90;;;;;;5064315;28;20711;-79
2023/10/23 00:02:57;;;;;;;1.75;1.10;;;7.50;99.90;;;;;;5065509;28;20044;-79
2023/10/23 00:05:23;;;;;;;1.40;1.20;;;7.50;99.90;;;;;;5063990;28;20037;-79
2023/10/23 00:07:48;;;;;;;2.83;1.35;;;7.50;99.90;;;;;;5055170;28;20712;-78
2023/10/23 00:10:15;;;;;;;2.72;1.30;;;7.50;99.90;;;;;;5043275;28;20419;-79
2023/10/23 00:12:40;;;;;;;2.03;1.02;;;7.40;99.90;;;;;;5044048;28;20316;-79
2023/10/23 00:15:06;;;;;;;1.13;1.02;;;7.40;99.90;;;;;;5044627;28;20057;-79
2023/10/23 00:17:32;;;;;;;0.88;0.80;;;7.50;99.90;;;;;;5044535;28;20060;-79
2023/10/23 00:19:59;;;;;;;5.32;1.75;;;7.50;99.90;;;;;;5026278;28;20094;-78
2023/10/23 00:22:25;;;;;;;1.42;1.27;;;7.40;99.90;;;;;;5044666;28;20045;-79
2023/10/23 00:24:50;;;;;;;1.00;0.90;;;7.40;99.90;;;;;;5043913;28;20044;-79
2023/10/23 00:27:16;;;;;;;1.23;0.60;;;7.40;99.90;;;;;;5043341;28;20099;-79
2023/10/23 00:29:41;;;;;;;1.13;1.02;;;7.40;99.90;;;;;;5063228;28;20506;-79
2023/10/23 00:32:07;;;;;;;1.30;1.00;;;7.40;99.90;;;;;;5027645;28;20468;-79
2023/10/23 00:34:32;;;;;;;1.30;1.02;;;7.40;99.90;;;;;;5042934;28;20045;-80
2023/10/23 00:36:58;;;;;;;1.25;0.90;;;7.40;99.90;;;;;;5043519;28;20045;-78
2023/10/23 00:39:23;;;;;;;1.50;1.40;;;7.30;99.90;;;;;;5043343;28;20035;-79
2023/10/23 00:41:49;;;;;;;1.42;0.73;;;7.30;99.90;;;;;;5044115;28;20075;-78
2023/10/23 00:44:15;;;;;;;3.03;1.70;;;7.30;99.90;;;;;;5053652;28;20055;-77
2023/10/23 00:46:41;;;;;;;2.45;1.10;;;7.40;99.90;;;;;;5063116;28;20044;-79
2023/10/23 00:49:08;;;;;;;2.60;1.58;;;7.40;99.90;;;;;;5048226;28;20098;-77
2023/10/23 00:51:35;;;;;;;1.55;1.45;;;7.40;99.90;;;;;;5043424;28;20045;-78
2023/10/23 00:54:03;;;;;;;0.90;0.90;;;7.40;99.90;;;;;;5026159;28;20099;-79
2023/10/23 00:56:29;;;;;;;2.13;1.42;;;7.40;99.90;;;;;;5043014;28;20051;-78
2023/10/23 00:58:55;;;;;;;1.13;1.02;;;7.40;99.90;;;;;;5042953;28;20558;-79
2023/10/23 01:01:21;;;;;;;1.08;0.88;;;7.40;99.90;;;;;;5042689;28;20049;-79
2023/10/23 01:06:30;;;;;;;1.27;1.00;;;7.40;99.90;;;;;;5020115;26;20735;-79
2023/10/23 01:08:56;;;;;;;1.60;0.95;;;7.50;99.90;;;;;;5032175;28;20045;-79
2023/10/23 01:11:22;;;;;;;3.03;1.13;;;7.40;99.90;;;;;;5013265;28;20057;-79
2023/10/23 01:13:47;;;;;;;0.80;0.73;;;7.40;99.90;;;;;;5014788;28;20040;-79
2023/10/23 01:16:13;;;;;;;2.53;1.15;;;7.30;99.90;;;;;;5034630;28;20048;-78
2023/10/23 01:18:39;;;;;;;1.48;1.38;;;7.30;99.90;;;;;;5023089;28;20045;-79
2023/10/23 01:21:04;;;;;;;1.27;1.17;;;7.40;99.90;;;;;;5040378;28;20037;-78
2023/10/23 01:23:35;;;;;;;1.92;1.27;;;7.30;99.90;;;;;;5025593;28;20057;-79
2023/10/23 01:26:00;;;;;;;2.20;1.90;;;7.30;99.90;;;;;;5022805;28;20448;-79
2023/10/23 01:28:26;;;;;;;2.95;2.00;;;7.40;99.90;;;;;;5023748;28;20136;-79
2023/10/23 01:30:52;;;;;;;3.00;1.90;;;7.40;99.90;;;;;;5023429;28;20045;-79
2023/10/23 01:33:17;;;;;;;2.03;1.48;;;7.30;99.90;;;;;;5022272;28;20059;-79
2023/10/23 01:35:43;;;;;;;1.55;1.25;;;7.40;99.90;;;;;;5023029;28;20045;-78
2023/10/23 01:38:08;;;;;;;2.10;1.92;;;7.40;99.90;;;;;;5035848;28;20064;-80
2023/10/23 01:40:34;;;;;;;1.50;1.40;;;7.40;99.90;;;;;;5021864;28;20038;-78
2023/10/23 01:43:00;;;;;;;3.30;1.05;;;7.40;99.90;;;;;;5006418;28;20075;-79
2023/10/23 01:45:26;;;;;;;1.92;1.10;;;7.40;99.90;;;;;;5023096;28;20488;-79
2023/10/23 01:47:51;;;;;;;1.65;1.30;;;7.50;99.90;;;;;;5022422;28;20033;-79
2023/10/23 01:50:17;;;;;;;2.28;1.25;;;7.50;99.90;;;;;;5004761;28;20099;-79
2023/10/23 01:52:44;;;;;;;1.95;1.83;;;7.50;99.90;;;;;;5023792;28;20046;-79
2023/10/23 01:55:11;;;;;;;2.17;1.80;;;7.50;99.90;;;;;;5023046;28;20049;-79
2023/10/23 01:57:36;;;;;;;2.17;1.77;;;7.50;99.90;;;;;;5023999;28;20121;-80
2023/10/23 02:00:06;;;;;;;2.28;1.58;;;7.50;99.90;;;;;;5023321;28;20116;-79
2023/10/23 02:02:33;;;;;;;2.42;2.20;;;7.50;99.90;;;;;;5022640;28;20040;-79
2023/10/23 02:04:59;;;;;;;1.75;1.45;;;7.50;99.90;;;;;;5041599;28;20049;-79
2023/10/23 02:07:26;;;;;;;1.73;1.63;;;7.50;99.90;;;;;;5030211;28;20045;-79
2023/10/23 02:09:53;;;;;;;1.98;1.23;;;7.50;99.90;;;;;;5022947;28;20125;-79
2023/10/23 02:12:18;;;;;;;2.67;1.95;;;7.50;99.90;;;;;;5021431;28;20053;-79
2023/10/23 02:14:44;;;;;;;2.90;1.77;;;7.50;99.90;;;;;;5021776;28;20045;-79
2023/10/23 02:17:10;;;;;;;2.95;2.25;;;7.50;99.90;;;;;;5022064;28;20049;-79
2023/10/23 02:19:35;;;;;;;2.83;2.17;;;7.50;99.90;;;;;;5021773;28;20045;-79
2023/10/23 02:22:01;;;;;;;2.25;1.80;;;7.50;99.90;;;;;;5040666;28;20624;-79
2023/10/23 02:24:26;;;;;;;4.05;1.80;;;7.50;99.90;;;;;;5028681;28;20046;-80
2023/10/23 02:26:54;;;;;;;1.75;1.60;;;7.40;99.90;;;;;;5021960;28;20549;-78
2023/10/23 02:29:19;;;;;;;1.73;1.63;;;7.40;99.90;;;;;;5022924;28;20040;-80
2023/10/23 02:31:45;;;;;;;3.53;1.75;;;7.40;99.90;;;;;;5021865;28;20395;-80
2023/10/23 02:34:11;;;;;;;3.83;1.98;;;7.40;99.90;;;;;;5021278;28;20045;-80
2023/10/23 02:36:36;;;;;;;1.58;1.48;;;7.40;99.90;;;;;;5021756;28;20068;-80
2023/10/23 02:39:02;;;;;;;2.60;1.75;;;7.40;99.90;;;;;;5022249;28;20049;-79
2023/10/23 02:41:31;;;;;;;2.38;1.60;;;7.30;99.90;;;;;;5021232;28;20075;-80
2023/10/23 02:43:56;;;;;;;2.55;2.22;;;7.30;99.90;;;;;;5022216;28;20132;-80
2023/10/23 02:46:22;;;;;;;3.53;1.90;;;7.30;99.90;;;;;;5021080;28;20120;-80
2023/10/23 02:48:48;;;;;;;3.42;2.13;;;7.30;99.90;;;;;;5021004;28;20046;-79
2023/10/23 02:51:13;;;;;;;3.40;2.13;;;7.30;99.90;;;;;;5021655;28;20060;-79
2023/10/23 02:53:39;;;;;;;1.95;1.75;;;7.30;99.90;;;;;;5021688;28;20116;-79
2023/10/23 02:56:12;;;;;;;2.63;1.50;;;7.20;99.90;;;;;;5020897;28;20376;-80
2023/10/23 02:58:38;;;;;;;9.13;1.95;;;7.20;99.90;;;;;;5004801;28;20103;-80
2023/10/23 03:01:17;;;;;;;6.32;1.73;;;7.20;99.90;;;;;;5020786;28;20046;-79
2023/10/23 03:03:43;;;;;;;43.67;2.85;;;7.20;99.90;;;;;;5017264;28;20053;-80
2023/10/23 03:06:09;;;;;;;3.83;1.38;;;7.20;99.90;;;;;;5021080;28;20142;-79
2023/10/23 03:08:35;;;;;;;4.15;1.85;;;7.20;99.90;;;;;;5004628;28;20057;-80
2023/10/23 03:11:01;;;;;;;5.47;1.58;;;7.20;99.90;;;;;;5004015;28;20049;-79
2023/10/23 03:13:26;;;;;;;6.18;2.10;;;7.20;99.90;;;;;;5020411;28;20601;-79
2023/10/23 03:15:52;;;;;;;5.22;1.70;;;7.20;99.90;;;;;;5024061;28;20049;-80
2023/10/23 03:18:18;;;;;;;4.03;1.80;;;7.10;99.90;;;;;;5041215;28;20048;-79
2023/10/23 03:20:43;;;;;;;1.80;1.23;;;7.10;99.90;;;;;;5033219;28;20562;-80
2023/10/23 03:23:09;;;;;;;1.73;1.10;;;7.10;99.90;;;;;;5021164;28;20080;-80
2023/10/23 03:25:34;;;;;;;1.40;1.30;;;7.10;99.90;;;;;;5021732;28;20060;-80
2023/10/23 03:28:00;;;;;;;2.63;2.10;;;7.10;99.90;;;;;;5020250;28;20046;-80
2023/10/23 03:30:26;;;;;;;2.85;1.60;;;7.10;99.90;;;;;;5020502;28;20057;-79
2023/10/23 03:32:51;;;;;;;1.70;1.17;;;7.00;99.90;;;;;;5028913;28;20103;-80
2023/10/23 03:35:17;;;;;;;1.35;1.10;;;7.00;99.90;;;;;;5033593;28;20092;-80
2023/10/23 03:37:42;;;;;;;1.20;1.10;;;7.00;99.90;;;;;;5021863;28;20073;-80
2023/10/23 03:40:10;;;;;;;2.60;1.40;;;7.10;99.90;;;;;;5036313;28;20048;-80
2023/10/23 03:42:36;;;;;;;1.45;1.33;;;7.00;99.90;;;;;;5039476;28;20041;-79
2023/10/23 03:45:01;;;;;;;2.50;1.20;;;7.00;99.90;;;;;;5004520;28;20140;-80
2023/10/23 03:47:27;;;;;;;1.63;1.17;;;7.10;99.90;;;;;;5019849;28;20121;-80
2023/10/23 03:49:53;;;;;;;1.65;1.35;;;7.00;99.90;;;;;;5020168;28;20100;-80
2023/10/23 03:52:18;;;;;;;1.40;1.27;;;7.00;99.90;;;;;;5021395;28;20117;-80
2023/10/23 03:54:44;;;;;;;2.67;1.05;;;7.00;99.90;;;;;;5021643;28;20037;-79
2023/10/23 03:57:09;;;;;;;1.45;1.13;;;7.10;99.90;;;;;;5020144;28;20757;-80
2023/10/23 03:59:35;;;;;;;1.45;1.23;;;7.00;99.90;;;;;;5021460;28;20095;-80
2023/10/23 04:02:00;;;;;;;2.90;1.48;;;6.90;99.90;;;;;;5040564;28;20076;-80
2023/10/23 04:04:26;;;;;;;1.15;1.02;;;7.00;99.90;;;;;;5024860;28;20042;-81
2023/10/23 04:06:51;;;;;;;1.05;0.73;;;6.90;99.90;;;;;;5021573;28;20110;-80
2023/10/23 04:09:17;;;;;;;2.88;1.60;;;6.90;99.90;;;;;;5019547;28;20694;-81
2023/10/23 04:11:42;;;;;;;4.32;1.45;;;6.90;99.90;;;;;;5001629;28;20225;-80
2023/10/23 04:14:08;;;;;;;3.03;1.67;;;6.80;99.90;;;;;;5021180;28;20041;-80
2023/10/23 04:16:35;;;;;;;1.52;1.40;;;6.90;99.90;;;;;;5020042;28;20053;-81
2023/10/23 04:19:01;;;;;;;6.32;1.92;;;6.80;99.90;;;;;;5020426;28;20175;-79
2023/10/23 04:21:26;;;;;;;2.88;1.77;;;6.80;99.90;;;;;;5003520;28;20145;-81
2023/10/23 04:23:52;;;;;;;3.65;1.90;;;6.90;99.90;;;;;;5019843;28;20062;-79
2023/10/23 04:26:17;;;;;;;2.40;1.90;;;6.90;99.90;;;;;;5021441;28;20034;-80
2023/10/23 04:28:43;;;;;;;4.55;1.75;;;6.90;99.90;;;;;;5020365;28;20503;-80
2023/10/23 04:31:09;;;;;;;2.70;2.05;;;6.90;99.90;;;;;;5021212;28;20037;-80
2023/10/23 04:33:35;;;;;;;2.88;1.75;;;6.90;99.90;;;;;;5019743;28;20033;-80
2023/10/23 04:36:01;;;;;;;5.60;2.65;;;6.80;99.90;;;;;;5020315;28;20037;-80
2023/10/23 04:38:27;;;;;;;5.90;2.50;;;6.80;99.90;;;;;;5023279;28;20072;-79
2023/10/23 04:40:53;;;;;;;23.42;2.35;;;6.70;99.90;;;;;;5023350;28;20491;-79
2023/10/23 04:43:19;;;;;;;8.98;2.40;;;6.70;99.90;;;;;;5023193;28;20046;-80
2023/10/23 04:45:45;;;;;;;5.25;2.20;;;6.70;99.90;;;;;;5023826;28;20523;-80
2023/10/23 04:48:11;;;;;;;2.60;1.92;;;6.70;99.90;;;;;;5023467;28;20065;-81
2023/10/23 04:50:38;;;;;;;3.67;2.30;;;6.70;99.90;;;;;;5024013;28;20048;-81
2023/10/23 04:53:05;;;;;;;4.40;2.30;;;6.70;99.90;;;;;;5022919;28;20042;-81
2023/10/23 04:55:35;;;;;;;24.85;3.20;;;6.70;99.90;;;;;;5023202;28;20045;-81
2023/10/23 04:58:03;;;;;;;35.15;2.92;;;6.70;99.90;;;;;;5024260;28;20514;-79
2023/10/23 05:00:29;;;;;;;4.15;2.50;;;6.70;99.90;;;;;;5024656;28;20579;-80
2023/10/23 05:02:55;;;;;;;4.35;2.45;;;6.70;99.90;;;;;;5041454;28;20132;-80
2023/10/23 05:05:21;;;;;;;2.75;2.20;;;6.70;99.90;;;;;;5023838;28;20049;-80
2023/10/23 05:07:47;;;;;;;1.70;1.60;;;6.70;99.90;;;;;;5021225;28;20539;-80
2023/10/23 05:10:12;;;;;;;2.53;2.33;;;6.60;99.90;;;;;;5010593;28;20042;-81
2023/10/23 05:12:39;;;;;;;1.83;1.73;;;6.60;99.90;;;;;;5002512;28;20553;-81
2023/10/23 05:15:08;;;;;;;2.55;1.70;;;6.60;99.90;;;;;;5025208;28;20061;-81
2023/10/23 05:17:34;;;;;;;2.72;1.40;;;6.70;99.90;;;;;;5022439;28;20111;-81
2023/10/23 05:19:59;;;;;;;3.28;1.98;;;6.60;99.90;;;;;;5023494;28;20817;-80
2023/10/23 05:22:25;;;;;;;5.35;2.13;;;6.60;99.90;;;;;;5022899;28;20413;-82
2023/10/23 05:24:50;;;;;;;2.65;2.45;;;6.60;99.90;;;;;;5022444;28;20112;-81
2023/10/23 05:27:20;;;;;;;3.88;2.00;;;6.60;99.90;;;;;;5006840;28;20068;-80
2023/10/23 05:29:46;;;;;;;2.38;2.15;;;6.60;99.90;;;;;;5022479;28;20038;-81
2023/10/23 05:32:11;;;;;;;2.20;2.00;;;6.50;99.90;;;;;;4986738;28;20138;-80
2023/10/23 05:34:37;;;;;;;2.38;2.17;;;6.60;99.90;;;;;;5019023;28;20049;-80
2023/10/23 05:37:03;;;;;;;3.63;2.65;;;6.60;99.90;;;;;;5020320;28;20045;-82
2023/10/23 05:39:29;;;;;;;2.92;2.20;;;6.60;99.90;;;;;;5022291;28;20555;-80
2023/10/23 05:41:55;;;;;;;2.90;1.85;;;6.60;99.90;;;;;;5006654;28;20037;-81
2023/10/23 05:44:20;;;;;;;2.13;1.63;;;6.50;99.90;;;;;;5009353;28;20042;-80
2023/10/23 05:46:46;;;;;;;6.25;1.77;;;6.50;99.90;;;;;;5012706;28;20311;-80
2023/10/23 05:49:12;;;;;;;2.58;1.38;;;6.50;99.90;;;;;;5012896;28;20045;-80
2023/10/23 05:51:37;;;;;;;2.95;1.42;;;6.50;99.90;;;;;;5011095;28;20046;-79
2023/10/23 05:54:03;;;;;;;2.95;1.90;;;6.50;99.90;;;;;;5021586;28;20069;-80
2023/10/23 05:56:29;;;;;;;4.80;1.60;;;6.50;99.90;;;;;;5004228;28;20041;-79
2023/10/23 05:58:54;;;;;;;1.48;1.38;;;6.50;99.90;;;;;;5022510;28;20037;-80
2023/10/23 06:01:20;;;;;;;2.78;1.83;;;6.50;99.90;;;;;;5022142;28;20064;-80
2023/10/23 06:03:46;;;;;;;1.30;1.08;;;6.50;99.90;;;;;;5026741;28;20055;-81
2023/10/23 06:06:12;;;;;;;2.63;1.20;;;6.40;99.90;;;;;;5033375;28;20409;-79
2023/10/23 06:08:39;;;;;;;2.55;1.85;;;6.40;99.90;;;;;;5013461;28;20072;-80
2023/10/23 06:11:09;;;;;;;1.70;1.33;;;6.40;99.90;;;;;;4993084;28;20130;-80
2023/10/23 06:13:34;;;;;;;2.72;1.10;;;6.40;99.90;;;;;;5020184;28;20322;-81
2023/10/23 06:16:04;;;;;;;1.33;1.25;;;6.40;99.90;;;;;;5021283;28;20117;-80
2023/10/23 06:18:33;;;;;;;0.95;0.85;;;6.40;99.90;;;;;;5019212;28;20049;-81
2023/10/23 06:21:03;;;;;;;2.35;1.42;;;6.40;99.90;;;;;;5020664;28;20048;-80
2023/10/23 06:23:35;;;;;;;1.23;1.10;;;6.30;99.90;;;;;;5020545;28;20340;-81
2023/10/23 06:26:01;;;;;;;3.15;1.92;;;6.30;99.90;;;;;;5021649;28;20102;-81
2023/10/23 06:28:27;;;;;;;1.20;1.10;;;6.30;99.90;;;;;;5019664;28;20053;-81
2023/10/23 06:30:52;;;;;;;1.38;0.90;;;6.30;99.90;;;;;;5019745;28;20251;-80
2023/10/23 06:33:18;;;;;;;0.90;0.90;;;6.30;99.90;;;;;;5018528;28;20033;-78
2023/10/23 06:35:44;;;;;;;1.10;0.98;;;6.30;99.90;;;;;;5021188;28;20096;-79
2023/10/23 06:38:09;;;;;;;2.50;1.48;;;6.30;99.90;;;;;;5024905;28;20048;-77
2023/10/23 06:40:35;;;;;;;1.67;0.93;;;6.30;99.90;;;;;;5041867;28;20047;-76
2023/10/23 06:43:00;;;;;;;3.60;1.92;;;6.40;99.90;;;;;;5027629;28;20048;-76
2023/10/23 06:45:26;;;;;;;3.88;1.48;;;6.30;99.90;;;;;;5031219;28;20053;-77
2023/10/23 06:47:52;;;;;;;1.83;1.13;;;6.30;99.90;;;;;;5041230;28;20056;-76
2023/10/23 06:50:17;;;;;;;1.08;0.98;;;6.30;99.90;;;;;;5023741;28;20041;-76
2023/10/23 06:52:44;;;;;;;4.68;1.90;;;6.30;99.90;;;;;;5020955;28;20041;-77
2023/10/23 06:55:09;;;;;;;2.35;1.60;;;6.30;99.90;;;;;;5020743;28;20693;-77
2023/10/23 06:57:35;;;;;;;2.10;1.77;;;6.30;99.90;;;;;;5020426;28;20052;-76
2023/10/23 07:00:01;;;;;;;1.83;1.52;;;6.30;99.90;;;;;;5035135;28;20317;-76
2023/10/23 07:02:26;;;;;;;5.28;2.45;;;6.30;99.90;;;;;;5038731;28;20037;-76
2023/10/23 07:04:52;;;;;;;4.50;1.77;;;6.40;99.90;;;;;;5020222;28;20053;-77
2023/10/23 07:07:18;;;;;;;4.05;1.90;;;6.30;99.90;;;;;;5019549;28;20041;-77
2023/10/23 07:09:43;;;;;;;6.28;2.97;;;6.40;99.90;;;;;;5021587;28;20041;-77
2023/10/23 07:12:09;;;;;;;5.97;3.22;;;6.40;99.90;;;;;;5040710;28;20571;-77
2023/10/23 07:14:34;;;;;;;4.00;2.92;;;6.40;99.90;;;;;;5032813;28;20049;-76
2023/10/23 07:17:00;;;;;;;5.70;2.63;;;6.40;99.90;;;;;;5021687;28;20053;-77
2023/10/23 07:19:26;;;;;;;4.32;3.60;;;6.40;99.90;;;;;;5019415;28;20050;-77
2023/10/23 07:21:51;;;;;;;5.10;2.83;;;6.50;99.90;;;;;;5020226;28;20046;-77
2023/10/23 07:24:17;;;;;;;3.83;2.70;;;6.60;99.90;;;;;;5020468;28;20434;-77
2023/10/23 07:26:42;;;;;;;4.50;2.05;;;6.60;99.90;;;;;;5025114;28;20056;-76
2023/10/23 07:29:08;;;;;;;3.22;2.10;;;6.70;99.90;;;;;;5018443;28;20045;-77
2023/10/23 07:31:36;;;;;;;2.63;2.08;;;6.70;99.90;;;;;;5022905;28;20179;-77
2023/10/23 07:34:03;;;;;;;5.95;2.83;;;6.70;99.90;;;;;;5027996;28;20054;-77
2023/10/23 07:36:29;;;;;;;4.22;2.72;;;6.80;99.90;;;;;;5019261;28;20190;-77
2023/10/23 07:38:55;;;;;;;3.05;2.05;;;6.80;99.90;;;;;;5020001;28;20128;-77
2023/10/23 07:41:20;;;;;;;4.50;2.88;;;6.80;99.90;;;;;;5021661;28;20407;-77
2023/10/23 07:43:46;;;;;;;3.40;2.35;;;6.90;99.90;;;;;;5014017;28;20115;-77
2023/10/23 07:46:12;;;;;;;3.42;3.13;;;7.00;99.90;;;;;;5019784;28;20495;-77
2023/10/23 07:48:38;;;;;;;4.22;3.80;;;7.00;99.90;;;;;;5016863;28;20041;-77
2023/10/23 07:51:03;;;;;;;6.35;3.95;;;7.00;99.90;;;;;;5010928;28;20068;-77
2023/10/23 07:53:32;;;;;;;4.18;3.42;;;7.10;99.90;;;;;;5034488;28;20044;-77
2023/10/23 07:55:58;;;;;;;5.50;3.78;;;7.20;99.90;;;;;;5020053;28;20398;-77
2023/10/23 07:58:24;;;;;;;3.47;2.85;;;7.20;99.90;;;;;;5020309;28;20037;-77
2023/10/23 08:00:51;;;;;;;4.93;4.10;;;7.20;99.90;;;;;;5022402;28;20049;-77
2023/10/23 08:03:17;;;;;;;7.85;3.95;;;7.20;99.90;;;;;;5019115;28;20092;-77
2023/10/23 08:05:43;;;;;;;4.90;2.90;;;7.30;99.90;;;;;;5040755;28;20103;-77
2023/10/23 08:08:09;;;;;;;6.47;4.07;;;7.30;99.90;;;;;;5027360;28;20800;-77
2023/10/23 08:10:34;;;;;;;4.75;3.10;;;7.40;99.90;;;;;;5020567;28;20488;-77
2023/10/23 08:13:00;;;;;;;6.50;3.83;;;7.40;99.90;;;;;;5023505;28;20038;-77
2023/10/23 08:15:26;;;;;;;4.60;2.92;;;7.40;99.90;;;;;;5023165;28;20048;-83
2023/10/23 08:17:51;;;;;;;6.72;4.05;;;7.50;99.90;;;;;;5024096;28;20053;-77
2023/10/23 08:20:17;;;;;;;3.60;3.30;;;7.50;99.90;;;;;;5024156;28;20049;-77
2023/10/23 08:22:43;;;;;;;5.97;3.88;;;7.60;99.90;;;;;;5025626;28;20045;-77
2023/10/23 08:25:08;;;;;;;7.53;3.80;;;7.60;99.90;;;;;;5025826;28;20064;-78
2023/10/23 08:27:34;;;;;;;7.32;5.32;;;7.70;99.90;;;;;;5023685;28;20469;-77
2023/10/23 08:30:00;;;;;;;12.02;4.03;;;7.70;99.90;;;;;;5029305;28;20034;-77
2023/10/23 08:32:25;;;;;;;7.57;4.03;;;7.70;99.90;;;;;;5037865;28;20564;-77
2023/10/23 08:34:53;;;;;;;4.93;3.92;;;7.80;99.90;;;;;;5029619;28;20034;-77
2023/10/23 08:37:19;;;;;;;7.30;4.18;;;7.90;99.90;;;;;;5029570;28;20041;-77
2023/10/23 08:39:45;;;;;;;9.05;4.75;;;7.90;99.90;;;;;;5034055;28;20430;-77
2023/10/23 08:42:11;;;;;;;9.75;3.60;;;7.90;99.90;;;;;;5029082;28;20045;-78
2023/10/23 08:44:36;;;;;;;14.35;6.95;;;8.00;99.90;;;;;;5023586;28;20490;-77
2023/10/23 08:47:02;;;;;;;13.25;5.35;;;8.00;99.90;;;;;;5023189;28;20412;-76
2023/10/23 08:49:29;;;;;;;8.00;4.53;;;8.10;99.90;;;;;;5020406;28;20492;-76
2023/10/23 08:51:57;;;;;;;10.35;6.38;;;8.10;99.90;;;;;;5044508;28;20033;-77
2023/10/23 08:54:24;;;;;;;7.15;4.60;;;8.20;99.90;;;;;;5027111;28;20348;-78
2023/10/23 08:56:58;;;;;;;7.30;5.00;;;8.20;99.90;;;;;;5023792;28;20084;-76
2023/10/23 08:59:24;;;;;;;5.65;4.22;;;8.30;99.90;;;;;;5010673;28;20048;-79
2023/10/23 09:01:50;;;;;;;15.07;4.50;;;8.30;99.90;;;;;;5023232;28;20045;-76
2023/10/23 09:04:15;;;;;;;7.63;4.07;;;8.40;99.90;;;;;;5042134;28;20661;-79
2023/10/23 09:06:42;;;;;;;6.50;4.57;;;8.40;99.90;;;;;;5037244;28;20056;-79
2023/10/23 09:09:08;;;;;;;8.63;3.83;;;8.40;99.90;;;;;;5023832;28;20432;-81
2023/10/23 09:11:52;;;;;;;3.85;3.22;;;8.50;99.90;;;;;;5018333;28;20100;-81
2023/10/23 09:14:32;;;;;;;8.30;4.32;;;8.50;99.90;;;;;;5019759;28;20400;-80
2023/10/23 09:16:59;;;;;;;8.65;3.97;;;8.50;99.90;;;;;;5023330;28;20037;-81
2023/10/23 09:19:42;;;;;;;6.85;3.30;;;8.60;99.90;;;;;;5019130;28;20593;-78
2023/10/23 09:22:07;;;;;;;9.35;4.65;;;8.60;99.90;;;;;;5016768;28;20055;-79
2023/10/23 09:24:33;;;;;;;8.60;5.32;;;8.60;99.90;;;;;;5022142;28;20116;-78
2023/10/23 09:26:59;;;;;;;7.05;4.40;;;8.70;99.90;;;;;;5023964;28;20151;-78
2023/10/23 09:29:25;;;;;;;12.98;4.43;;;8.70;99.90;;;;;;5029558;28;20040;-80
2023/10/23 09:31:57;;;;;;;6.53;3.95;;;8.70;99.90;;;;;;5006819;28;20106;-79
2023/10/23 09:34:23;;;;;;;10.35;4.03;;;8.80;99.90;;;;;;5020206;28;20570;-74
2023/10/23 09:36:52;;;;;;;11.32;4.57;;;8.80;99.90;;;;;;5023760;28;20069;-76
2023/10/23 09:39:19;;;;;;;9.63;4.80;;;8.90;99.90;;;;;;5030973;28;20079;-78
2023/10/23 09:41:48;;;;;;;5.88;3.80;;;8.90;99.90;;;;;;5009401;28;20336;-77
2023/10/23 09:44:15;;;;;;;8.55;3.47;;;9.00;99.90;;;;;;5027534;28;20095;-77
2023/10/23 09:46:42;;;;;;;9.32;5.38;;;9.10;99.90;;;;;;5029714;28;20144;-77
2023/10/23 09:49:09;;;;;;;8.30;3.97;;;9.10;99.90;;;;;;5021044;28;20041;-78
2023/10/23 09:51:40;;;;;;;6.97;3.53;;;9.10;99.90;;;;;;5036983;28;20129;-77
2023/10/23 09:54:17;;;;;;;9.32;4.22;;;9.20;99.90;;;;;;5025315;28;20056;-77
2023/10/23 09:56:52;;;;;;;8.18;4.18;;;9.20;99.90;;;;;;5035668;28;20049;-77
2023/10/23 09:59:24;;;;;;;11.95;5.03;;;9.30;99.90;;;;;;5021619;28;20083;-85
2023/10/23 10:01:50;;;;;;;5.15;3.78;;;9.30;99.90;;;;;;5022799;28;20041;-77
2023/10/23 10:04:48;;;;;;;10.15;5.10;;;9.40;99.90;;;;;;5019452;28;20099;-78
2023/10/23 10:07:53;;;;;;;9.82;4.28;;;9.40;99.90;;;;;;5020571;28;20052;-77
2023/10/23 10:10:20;;;;;;;8.75;4.38;;;9.50;99.90;;;;;;5015775;28;20061;-78
2023/10/23 10:12:46;;;;;;;7.22;4.22;;;9.50;99.90;;;;;;5021582;28;20049;-80
2023/10/23 10:15:13;;;;;;;4.82;3.15;;;9.60;99.90;;;;;;5021185;28;20734;-78
2023/10/23 10:17:39;;;;;;;6.45;3.22;;;9.60;99.90;;;;;;5019890;28;20038;-77
2023/10/23 10:20:08;;;;;;;8.30;3.50;;;9.70;99.90;;;;;;5028577;28;20119;-78
2023/10/23 10:22:36;;;;;;;6.13;3.53;;;9.70;99.90;;;;;;4989144;28;20076;-78
2023/10/23 10:25:06;;;;;;;10.77;3.08;;;9.80;99.90;;;;;;5019698;28;20461;-77
2023/10/23 10:27:32;;;;;;;5.43;4.07;;;9.80;99.90;;;;;;5019407;28;20045;-77
2023/10/23 10:30:05;;;;;;;9.27;3.70;;;9.90;99.90;;;;;;5020033;28;20085;-77
2023/10/23 10:32:33;;;;;;;6.95;3.72;;;9.90;99.90;;;;;;5018663;28;20356;-76
2023/10/23 10:35:03;;;;;;;7.32;3.92;;;10.00;99.90;;;;;;5026932;28;20068;-76
2023/10/23 10:37:30;;;;;;;7.25;4.28;;;10.10;99.90;;;;;;5013491;28;20049;-77
2023/10/23 10:39:56;;;;;;;5.72;2.83;;;10.10;99.90;;;;;;5019786;28;20029;-77
2023/10/23 10:42:28;;;;;;;6.53;3.63;;;10.10;99.90;;;;;;5029584;28;20048;-76
2023/10/23 10:45:10;;;;;;;6.65;3.65;;;10.10;99.90;;;;;;5013543;28;20049;-76
2023/10/23 10:47:52;;;;;;;6.00;3.47;;;10.20;99.90;;;;;;5030437;28;20055;-77
2023/10/23 10:50:35;;;;;;;5.00;2.90;;;10.20;99.90;;;;;;5018863;28;20045;-77
2023/10/23 10:53:03;;;;;;;5.82;2.40;;;10.30;99.90;;;;;;5010376;28;20808;-77
2023/10/23 10:55:29;;;;;;;5.20;3.08;;;10.30;99.90;;;;;;5020302;28;20038;-76
2023/10/23 10:57:57;;;;;;;5.15;2.10;;;10.40;99.90;;;;;;5000023;28;20067;-76
2023/10/23 11:00:25;;;;;;;4.05;2.58;;;10.40;99.90;;;;;;5021328;28;20052;-76
2023/10/23 11:02:52;;;;;;;2.15;1.70;;;10.40;99.90;;;;;;5018496;28;20460;-76
2023/10/23 11:05:17;;;;;;;1.52;1.42;;;10.40;99.90;;;;;;5002041;28;20053;-74
2023/10/23 11:07:47;;;;;;;2.92;2.00;;;10.50;99.90;;;;;;5019911;28;20053;-76
2023/10/23 11:10:13;;;;;;;5.30;1.98;;;10.50;99.90;;;;;;5002732;28;20124;-77
2023/10/23 11:12:38;;;;;;;2.72;1.77;;;10.50;99.90;;;;;;5019617;28;20582;-77
2023/10/23 11:15:05;;;;;;;2.97;1.60;;;10.60;99.90;;;;;;5020640;28;20038;-77
2023/10/23 11:17:30;;;;;;;3.03;1.55;;;10.60;99.90;;;;;;5016971;28;20131;-77
2023/10/23 11:19:58;;;;;;;5.72;2.10;;;10.70;99.90;;;;;;5020715;28;20077;-77
2023/10/23 11:22:25;;;;;;;4.00;1.88;;;10.70;99.90;;;;;;5029717;28;20074;-77
2023/10/23 11:24:51;;;;;;;1.77;1.52;;;10.80;99.90;;;;;;5020354;28;20046;-76
2023/10/23 11:27:17;;;;;;;3.63;1.50;;;10.80;99.90;;;;;;5013593;28;20041;-77
2023/10/23 11:29:46;;;;;;;2.25;1.20;;;10.80;99.90;;;;;;5032941;28;20487;-77
2023/10/23 11:32:14;;;;;;;3.65;1.10;;;10.90;99.90;;;;;;5020059;28;20095;-77
2023/10/23 11:34:39;;;;;;;2.30;1.10;;;11.00;99.90;;;;;;5017382;28;20037;-77
2023/10/23 11:37:07;;;;;;;2.25;1.52;;;11.10;99.90;;;;;;5021369;28;20089;-76
2023/10/23 11:39:35;;;;;;;2.65;1.73;;;11.10;99.90;;;;;;5021011;28;20041;-75
2023/10/23 11:42:02;;;;;;;1.38;1.27;;;11.10;99.90;;;;;;5031611;28;20095;-81
2023/10/23 11:44:29;;;;;;;1.92;1.27;;;11.00;99.90;;;;;;5040251;28;20123;-77
2023/10/23 11:46:56;;;;;;;0.65;0.60;;;11.10;99.90;;;;;;5020301;28;20099;-77
2023/10/23 11:49:25;;;;;;;4.25;1.00;;;11.20;99.90;;;;;;5019708;28;20065;-76
2023/10/23 11:51:52;;;;;;;3.28;0.80;;;11.20;99.90;;;;;;5004895;28;20392;-76
2023/10/23 11:54:18;;;;;;;1.70;1.25;;;11.20;99.90;;;;;;5022131;28;20084;-76
2023/10/23 11:56:44;;;;;;;1.30;0.65;;;11.20;99.90;;;;;;5020769;28;20054;-76
2023/10/23 11:59:21;;;;;;;0.60;0.55;;;11.20;99.90;;;;;;5019879;28;20049;-76
2023/10/23 12:01:47;;;;;;;1.00;0.70;;;11.30;99.90;;;;;;5018911;28;20041;-76
2023/10/23 12:04:13;;;;;;;1.10;0.90;;;11.40;99.90;;;;;;5019945;28;20033;-77
2023/10/23 12:06:40;;;;;;;1.27;0.82;;;11.40;99.90;;;;;;5022515;28;20389;-77
2023/10/23 12:09:07;;;;;;;1.52;0.90;;;11.40;99.90;;;;;;5020476;28;20045;-77
2023/10/23 12:11:33;;;;;;;2.58;0.70;;;11.50;99.90;;;;;;5021450;28;20462;-77
2023/10/23 12:14:01;;;;;;;0.75;0.68;;;11.50;99.90;;;;;;5022047;28;20865;-77
2023/10/23 12:16:27;;;;;;;0.68;0.60;;;11.50;99.90;;;;;;5021571;28;20061;-76
2023/10/23 12:18:53;;;;;;;0.93;0.70;;;11.60;99.90;;;;;;5020132;28;20529;-77
2023/10/23 12:21:18;;;;;;;2.00;0.70;;;11.60;99.90;;;;;;5021698;28;20034;-77
2023/10/23 12:23:45;;;;;;;0.75;0.75;;;11.60;99.90;;;;;;5003683;28;20042;-77
2023/10/23 12:26:11;;;;;;;0.57;0.50;;;11.70;99.90;;;;;;5020187;28;20111;-77
2023/10/23 12:28:37;;;;;;;1.45;1.02;;;11.70;99.90;;;;;;5021648;28;20051;-77
2023/10/23 12:31:04;;;;;;;1.40;0.68;;;11.70;99.90;;;;;;5004174;28;20131;-77
2023/10/23 12:33:30;;;;;;;0.70;0.40;;;11.70;99.90;;;;;;5020274;28;20130;-82
2023/10/23 12:35:57;;;;;;;0.52;0.50;;;11.70;99.90;;;;;;5019958;28;20033;-77
2023/10/23 12:38:22;;;;;;;1.70;1.23;;;11.70;99.90;;;;;;5021399;28;20052;-77
2023/10/23 12:40:49;;;;;;;1.23;0.55;;;11.70;99.90;;;;;;5021802;28;20030;-77
2023/10/23 12:43:14;;;;;;;0.60;0.45;;;11.70;99.90;;;;;;5020828;28;20034;-77
2023/10/23 12:45:42;;;;;;;1.33;0.68;;;11.70;99.90;;;;;;5019666;28;20547;-78
2023/10/23 12:48:08;;;;;;;1.48;0.70;;;11.70;99.90;;;;;;5021021;28;20080;-77
2023/10/23 12:50:34;;;;;;;1.20;0.60;;;11.70;99.90;;;;;;5003940;28;20042;-77
2023/10/23 12:53:00;;;;;;;2.45;0.90;;;11.80;99.90;;;;;;5020089;28;20451;-78
2023/10/23 12:55:25;;;;;;;0.90;0.90;;;11.80;99.90;;;;;;5002695;28;20037;-77